createdAt,value
2022-12-14T00:04:34.818Z,7.97
2022-12-14T00:09:37.471Z,7.67
2022-12-14T00:14:40.072Z,8.73
2022-12-14T00:19:42.764Z,8.60
2022-12-14T00:24:45.352Z,9.70
2022-12-14T00:29:47.763Z,9.13
2022-12-14T00:34:50.164Z,8.53
2022-12-14T00:39:52.665Z,8.67
2022-12-14T00:44:55.265Z,9.47
2022-12-14T00:49:57.797Z,8.13
2022-12-14T00:55:00.465Z,9.77
2022-12-14T01:00:03.124Z,9.37
2022-12-14T01:05:05.952Z,10.67
2022-12-14T01:10:08.926Z,8.17
2022-12-14T01:15:11.908Z,8.20
2022-12-14T01:20:14.651Z,8.43
2022-12-14T01:25:17.103Z,8.27
2022-12-14T01:30:19.659Z,8.60
2022-12-14T01:35:22.148Z,11.23
2022-12-14T01:40:24.556Z,8.53
2022-12-14T01:45:27.239Z,7.77
2022-12-14T01:50:41.660Z,9.20
2022-12-14T01:55:50.090Z,8.27
2022-12-14T02:00:58.570Z,7.63
2022-12-14T02:06:03.682Z,9.07
2022-12-14T02:11:06.227Z,8.77
2022-12-14T02:16:10.620Z,10.30
2022-12-14T02:21:35.297Z,9.07
2022-12-14T02:26:56.483Z,7.57
2022-12-14T02:32:26.719Z,6.43
2022-12-14T02:37:44.666Z,11.97
2022-12-14T02:43:18.963Z,8.53
2022-12-14T02:48:31.668Z,9.37
2022-12-14T02:53:53.495Z,8.10
2022-12-14T02:58:56.778Z,9.07
2022-12-14T03:04:00.253Z,7.40
2022-12-14T03:09:17.830Z,10.43
2022-12-14T03:14:36.072Z,8.77
2022-12-14T03:19:44.383Z,7.37
2022-12-14T03:25:01.144Z,9.87
2022-12-14T03:30:13.970Z,9.27
2022-12-14T03:35:18.816Z,9.80
2022-12-14T03:40:43.212Z,9.57
2022-12-14T03:45:58.096Z,7.17
2022-12-14T03:51:13.174Z,10.57
2022-12-14T03:56:39.120Z,9.43
2022-12-14T04:01:46.980Z,9.30
2022-12-14T04:07:10.172Z,10.53
2022-12-14T04:12:51.902Z,9.50
2022-12-14T04:18:17.806Z,8.73
2022-12-14T04:23:44.303Z,12.57
2022-12-14T04:29:21.075Z,9.13
2022-12-14T04:34:26.272Z,9.47
2022-12-14T04:39:38.537Z,9.10
2022-12-14T04:44:52.229Z,12.83
2022-12-14T04:50:15.183Z,12.00
2022-12-14T04:55:42.271Z,10.40
2022-12-14T05:01:28.970Z,11.10
2022-12-14T05:06:41.427Z,11.30
2022-12-14T05:11:54.275Z,11.57
2022-12-14T05:16:58.132Z,10.37
2022-12-14T05:22:08.091Z,9.57
2022-12-14T05:27:10.680Z,12.73
2022-12-14T05:32:14.166Z,12.37
2022-12-14T05:37:18.611Z,11.40
2022-12-14T05:42:21.584Z,12.00
2022-12-14T05:47:24.662Z,12.40
2022-12-14T05:52:28.012Z,11.40
2022-12-14T05:57:31.999Z,10.40
2022-12-14T06:02:34.494Z,13.83
2022-12-14T06:07:36.950Z,13.10
2022-12-14T06:12:39.383Z,11.23
2022-12-14T06:17:48.263Z,13.63
2022-12-14T06:22:50.629Z,14.33
2022-12-14T06:27:55.922Z,10.73
2022-12-14T06:32:58.279Z,13.30
2022-12-14T06:38:00.642Z,12.50
2022-12-14T06:43:03.548Z,12.07
2022-12-14T06:48:06.639Z,14.67
2022-12-14T06:53:13.486Z,13.13
2022-12-14T06:58:16.216Z,11.37
2022-12-14T07:03:18.668Z,11.73
2022-12-14T07:08:21.122Z,13.07
2022-12-14T07:13:23.660Z,14.30
2022-12-14T07:18:26.871Z,15.00
2022-12-14T07:23:32.213Z,12.60
2022-12-14T07:28:37.082Z,14.77
2022-12-14T07:33:39.517Z,12.83
2022-12-14T07:38:43.794Z,13.93
2022-12-14T07:43:49.958Z,16.60
2022-12-14T07:48:54.775Z,14.43
2022-12-14T07:53:58.421Z,12.97
2022-12-14T07:59:03.617Z,14.53
2022-12-14T08:04:08.816Z,14.63
2022-12-14T08:09:12.269Z,15.03
2022-12-14T08:14:17.572Z,14.40
2022-12-14T08:19:20.495Z,15.70
2022-12-14T08:24:22.890Z,14.27
2022-12-14T08:29:25.372Z,17.43
2022-12-14T08:34:27.927Z,15.47
2022-12-14T08:39:30.360Z,15.60
2022-12-14T08:44:32.991Z,13.97
2022-12-14T08:49:35.698Z,15.97
2022-12-14T08:54:38.094Z,12.93
2022-12-14T09:00:00.833Z,16.17
2022-12-14T09:05:03.669Z,14.03
2022-12-14T09:10:08.163Z,15.73
2022-12-14T09:15:11.905Z,13.57
2022-12-14T09:20:14.799Z,14.47
2022-12-14T09:25:17.403Z,15.07
2022-12-14T09:30:26.205Z,19.57
2022-12-14T09:35:29.115Z,19.00
2022-12-14T09:40:33.281Z,17.03
2022-12-14T09:45:47.719Z,13.80
2022-12-14T09:50:52.676Z,14.73
2022-12-14T09:55:57.303Z,13.87
2022-12-14T10:01:20.847Z,16.10
2022-12-14T10:06:45.654Z,14.27
2022-12-14T10:12:09.536Z,15.00
2022-12-14T10:17:21.927Z,15.20
2022-12-14T10:22:34.275Z,14.33
2022-12-14T10:28:09.171Z,13.60
2022-12-14T10:33:13.856Z,16.67
2022-12-14T10:38:29.798Z,17.20
2022-12-14T10:43:56.387Z,18.33
2022-12-14T10:49:24.605Z,16.90
2022-12-14T10:54:38.665Z,16.60
2022-12-14T10:59:55.597Z,17.40
2022-12-14T11:05:23.638Z,17.90
2022-12-14T11:10:32.605Z,17.53
2022-12-14T11:15:40.258Z,17.37
2022-12-14T11:20:52.924Z,17.17
2022-12-14T11:26:00.916Z,16.80
2022-12-14T11:31:14.490Z,16.37
2022-12-14T11:36:28.823Z,16.53
2022-12-14T11:41:36.965Z,15.80
2022-12-14T11:46:51.538Z,14.87
2022-12-14T11:52:05.744Z,14.60
2022-12-14T11:57:22.727Z,18.90
2022-12-14T12:02:48.141Z,17.60
2022-12-14T12:07:50.626Z,18.13
2022-12-14T12:12:59.842Z,16.47
2022-12-14T12:18:22.195Z,17.07
2022-12-14T12:23:45.225Z,17.97
2022-12-14T12:28:54.532Z,16.97
2022-12-14T12:34:10.245Z,18.07
2022-12-14T12:39:17.052Z,18.83
2022-12-14T12:44:59.816Z,21.27
2022-12-14T12:50:07.115Z,21.77
2022-12-14T12:55:16.879Z,16.43
2022-12-14T13:00:22.233Z,20.10
2022-12-14T13:16:26.536Z,22.60
2022-12-14T13:21:34.743Z,18.43
2022-12-14T13:27:13.799Z,18.47
2022-12-14T13:33:05.139Z,18.73
2022-12-14T13:38:16.326Z,20.53
2022-12-14T13:43:24.860Z,19.87
2022-12-14T13:48:35.104Z,19.40
2022-12-14T13:53:50.428Z,20.17
2022-12-14T13:58:55.222Z,20.93
2022-12-14T14:04:18.605Z,23.03
2022-12-14T14:09:28.375Z,19.10
2022-12-14T14:14:37.047Z,21.23
2022-12-14T14:19:42.632Z,19.50
2022-12-14T14:24:55.033Z,21.30
2022-12-14T14:29:58.318Z,18.23
2022-12-14T14:35:06.902Z,18.70
2022-12-14T14:40:26.189Z,17.87
2022-12-14T14:45:34.562Z,18.93
2022-12-14T14:50:39.895Z,19.07
2022-12-14T14:56:01.949Z,19.60
2022-12-14T15:01:20.888Z,18.80
2022-12-14T15:06:41.429Z,17.37
2022-12-14T15:11:56.630Z,15.80
2022-12-14T15:17:11.076Z,14.70
2022-12-14T15:22:19.925Z,17.67
2022-12-14T15:27:27.435Z,16.17
2022-12-14T15:32:31.883Z,20.17
2022-12-14T15:37:46.861Z,12.53
2022-12-14T15:42:58.533Z,14.87
2022-12-14T15:48:23.584Z,14.83
2022-12-14T15:53:52.124Z,13.90
2022-12-14T15:58:56.490Z,14.83
2022-12-14T16:04:05.694Z,13.93
2022-12-14T16:09:14.405Z,14.40
2022-12-14T16:14:32.660Z,12.53
2022-12-14T16:19:57.488Z,16.83
2022-12-14T16:25:21.770Z,14.70
2022-12-14T16:30:34.129Z,15.03
2022-12-14T16:35:38.123Z,16.10
2022-12-14T16:40:53.888Z,13.33
2022-12-14T16:46:05.279Z,13.97
2022-12-14T16:51:32.635Z,15.43
2022-12-14T16:56:45.579Z,14.03
2022-12-14T17:01:50.180Z,14.70
2022-12-14T17:06:55.659Z,15.70
2022-12-14T17:12:11.155Z,13.60
2022-12-14T17:17:35.047Z,10.50
2022-12-14T17:22:37.589Z,11.47
2022-12-14T17:27:41.039Z,12.77
2022-12-14T17:32:44.875Z,12.77
2022-12-14T17:37:48.349Z,11.07
2022-12-14T17:42:54.773Z,10.87
2022-12-14T17:47:57.839Z,12.30
2022-12-14T17:53:00.354Z,12.57
2022-12-14T17:58:03.091Z,11.83
2022-12-14T18:03:06.251Z,13.53
2022-12-14T18:08:10.036Z,15.50
2022-12-14T18:13:13.915Z,14.83
2022-12-14T18:18:20.456Z,12.03
2022-12-14T18:23:22.937Z,14.27
2022-12-14T18:28:25.860Z,12.27
2022-12-14T18:33:29.190Z,11.53
2022-12-14T18:38:32.068Z,13.00
2022-12-14T18:43:40.165Z,14.30
2022-12-14T18:48:46.762Z,15.87
2022-12-14T18:53:49.757Z,14.50
2022-12-14T18:58:52.640Z,13.77
2022-12-14T19:03:55.268Z,13.53
2022-12-14T19:08:57.768Z,15.77
2022-12-14T19:14:01.054Z,12.87
2022-12-14T19:19:03.706Z,15.47
2022-12-14T19:24:08.684Z,15.87
2022-12-14T19:29:11.168Z,13.67
2022-12-14T19:34:14.065Z,10.87
2022-12-14T19:39:17.027Z,13.50
2022-12-14T19:44:19.507Z,13.47
2022-12-14T19:49:22.454Z,15.00
2022-12-14T19:54:24.893Z,12.73
2022-12-14T19:59:27.536Z,18.57
2022-12-14T20:04:30.125Z,20.30
2022-12-14T20:09:32.759Z,16.97
2022-12-14T20:14:39.818Z,17.70
2022-12-14T20:19:42.329Z,16.90
2022-12-14T20:24:47.359Z,18.03
2022-12-14T20:29:49.952Z,15.17
2022-12-14T20:34:52.448Z,16.20
2022-12-14T20:39:54.951Z,15.80
2022-12-14T20:45:00.332Z,16.63
2022-12-14T20:50:05.384Z,16.20
2022-12-14T20:55:08.266Z,15.53
2022-12-14T21:00:11.422Z,14.27
2022-12-14T21:05:14.082Z,18.73
2022-12-14T21:10:16.947Z,14.43
2022-12-14T21:15:19.460Z,16.10
2022-12-14T21:20:22.483Z,16.60
2022-12-14T21:25:24.922Z,16.60
2022-12-14T21:30:27.332Z,17.80
2022-12-14T21:35:29.742Z,15.33
2022-12-14T21:40:50.976Z,15.63
2022-12-14T21:45:53.444Z,16.50
2022-12-14T21:50:56.051Z,16.60
2022-12-14T21:56:21.502Z,16.47
2022-12-14T22:01:23.973Z,18.13
2022-12-14T22:06:26.559Z,16.90
2022-12-14T22:11:29.638Z,14.70
2022-12-14T22:16:34.098Z,14.63
2022-12-14T22:21:39.266Z,15.13
2022-12-14T22:26:42.673Z,16.03
2022-12-14T22:31:45.440Z,16.00
2022-12-14T22:36:49.602Z,16.50
2022-12-14T22:41:52.007Z,17.40
2022-12-14T22:46:54.658Z,16.73
2022-12-14T22:51:57.066Z,16.33
2022-12-14T22:57:04.225Z,13.17
2022-12-14T23:02:06.883Z,14.87
2022-12-14T23:07:09.655Z,14.73
2022-12-14T23:12:30.922Z,15.03
2022-12-14T23:17:52.089Z,14.33
2022-12-14T23:23:13.378Z,13.77
2022-12-14T23:28:34.574Z,14.03
2022-12-14T23:33:55.914Z,14.63
2022-12-14T23:39:17.057Z,14.23
2022-12-14T23:44:38.103Z,14.00
2022-12-14T23:49:59.286Z,15.77
2022-12-14T23:55:20.364Z,16.17
